Time;durP1;ratioP1;P1;durP2;ratioP2;P2;SDS_P1;SDS_P2;PMS_P1;PMS_P2;Temp;Humidity;BMP_temperature;BMP_pressure;BME280_temperature;BME280_humidity;BME280_pressure;Samples;Min_cycle;Max_cycle;Signal;HPM_P1;HPM_P2
2020/12/05 00:27:08;;;;;;;38.03;20.23;;;4.40;99.90;;;;;;3505092;41;20430;-88
2020/12/05 00:29:33;;;;;;;46.80;21.30;;;4.50;99.90;;;;;;3504714;33;20996;-85
2020/12/05 00:32:06;;;;;;;35.07;21.10;;;4.70;99.90;;;;;;3505213;41;20296;-85
2020/12/05 00:34:34;;;;;;;37.33;21.10;;;4.60;99.90;;;;;;3508720;33;20255;-85
2020/12/05 00:37:00;;;;;;;34.20;20.10;;;4.60;99.90;;;;;;3510010;41;20383;-86
2020/12/05 00:39:26;;;;;;;31.43;19.30;;;4.60;99.90;;;;;;3501209;41;20362;-87
2020/12/05 00:41:55;;;;;;;33.80;19.47;;;4.60;99.90;;;;;;3516461;33;20222;-88
2020/12/05 00:44:20;;;;;;;35.77;20.23;;;4.60;99.90;;;;;;3513429;33;20361;-86
2020/12/05 00:46:46;;;;;;;34.33;19.10;;;4.60;99.90;;;;;;3512290;41;20434;-86
2020/12/05 00:49:12;;;;;;;31.50;19.70;;;4.60;99.90;;;;;;3499037;41;20352;-84
2020/12/05 00:51:38;;;;;;;36.13;20.33;;;4.60;99.90;;;;;;3502209;41;20254;-85
2020/12/05 00:54:03;;;;;;;37.00;19.77;;;4.60;99.90;;;;;;3493073;41;20246;-85
2020/12/05 00:56:30;;;;;;;34.90;20.23;;;4.60;99.90;;;;;;3501936;33;20226;-85
2020/12/05 00:58:55;;;;;;;40.20;20.10;;;4.60;99.90;;;;;;3500128;41;20418;-86
2020/12/05 01:01:21;;;;;;;34.53;21.07;;;4.50;99.90;;;;;;3508389;41;20287;-85
2020/12/05 01:03:48;;;;;;;30.20;20.53;;;4.50;99.90;;;;;;3508036;40;20792;-85
2020/12/05 01:06:15;;;;;;;36.43;19.87;;;4.50;99.90;;;;;;3499661;41;20489;-85
2020/12/05 01:08:45;;;;;;;36.47;20.80;;;4.50;99.90;;;;;;3506708;41;20338;-84
2020/12/05 01:11:13;;;;;;;45.27;22.23;;;4.40;99.90;;;;;;3507412;41;20370;-84
2020/12/05 01:13:39;;;;;;;33.07;19.33;;;4.40;99.90;;;;;;3508341;41;20358;-85
2020/12/05 01:16:05;;;;;;;38.93;21.03;;;4.40;99.90;;;;;;3506813;41;20425;-84
2020/12/05 01:18:31;;;;;;;41.77;20.97;;;4.40;99.90;;;;;;3493369;41;20365;-84
2020/12/05 01:20:56;;;;;;;35.30;18.90;;;4.30;99.90;;;;;;3497894;41;20369;-84
2020/12/05 01:23:22;;;;;;;33.30;20.50;;;4.30;99.90;;;;;;3508365;33;20314;-85
2020/12/05 01:25:48;;;;;;;35.40;19.20;;;4.30;99.90;;;;;;3508208;41;20908;-85
2020/12/05 01:28:14;;;;;;;34.87;19.73;;;4.20;99.90;;;;;;3499406;41;20274;-86
2020/12/05 01:30:40;;;;;;;36.60;21.10;;;4.20;99.90;;;;;;3487501;41;20736;-85
2020/12/05 01:33:11;;;;;;;34.83;21.67;;;4.30;99.90;;;;;;3499058;41;20250;-84
2020/12/05 01:35:36;;;;;;;39.00;22.33;;;4.30;99.90;;;;;;3481378;41;20382;-83
2020/12/05 01:38:02;;;;;;;35.20;19.07;;;4.30;99.90;;;;;;3480291;41;20476;-84
2020/12/05 01:40:28;;;;;;;45.73;22.70;;;4.20;99.90;;;;;;3480397;41;20277;-84
2020/12/05 01:42:58;;;;;;;42.53;23.93;;;4.20;99.90;;;;;;3484301;41;20250;-86
2020/12/05 01:45:24;;;;;;;38.03;19.57;;;4.30;99.90;;;;;;3500828;33;20226;-85
2020/12/05 01:47:55;;;;;;;36.33;21.20;;;4.40;99.90;;;;;;3495320;33;21155;-85
2020/12/05 01:50:21;;;;;;;37.40;20.20;;;4.40;99.90;;;;;;3489648;33;20352;-85
2020/12/05 01:52:49;;;;;;;48.67;24.83;;;4.40;99.90;;;;;;3480478;33;20343;-85
2020/12/05 01:55:15;;;;;;;38.27;20.33;;;4.50;99.90;;;;;;3500469;33;20369;-85
2020/12/05 01:57:41;;;;;;;42.43;20.83;;;4.50;99.90;;;;;;3488744;41;20364;-84
2020/12/05 02:00:07;;;;;;;30.60;18.30;;;4.60;99.90;;;;;;3491454;41;20342;-85
2020/12/05 02:02:36;;;;;;;28.57;19.40;;;4.60;99.90;;;;;;3472752;41;20426;-84
2020/12/05 02:05:19;;;;;;;35.20;18.43;;;4.60;99.90;;;;;;3494782;33;20889;-85
2020/12/05 02:07:55;;;;;;;40.50;21.40;;;4.70;99.90;;;;;;3487985;41;20382;-84
2020/12/05 02:10:26;;;;;;;31.17;20.27;;;4.70;99.90;;;;;;3488082;41;20386;-85
2020/12/05 02:13:09;;;;;;;31.20;17.87;;;4.80;99.90;;;;;;3488122;33;20379;-85
2020/12/05 02:15:39;;;;;;;34.70;19.43;;;4.80;99.90;;;;;;3469385;33;20482;-85
2020/12/05 02:18:09;;;;;;;27.93;17.17;;;4.80;99.90;;;;;;3456036;41;20475;-85
2020/12/05 02:20:37;;;;;;;38.70;19.60;;;4.80;99.90;;;;;;3448957;41;20350;-84
2020/12/05 02:23:20;;;;;;;35.63;21.23;;;4.80;99.90;;;;;;3463573;34;20397;-83
2020/12/05 02:25:52;;;;;;;36.57;19.33;;;4.80;99.90;;;;;;3451756;34;20696;-85
2020/12/05 02:28:19;;;;;;;34.07;17.53;;;4.80;99.90;;;;;;3467116;41;20367;-84
2020/12/05 02:30:45;;;;;;;27.90;16.87;;;4.70;99.90;;;;;;3465928;41;20989;-85
2020/12/05 02:33:14;;;;;;;31.57;18.50;;;4.70;99.90;;;;;;3460322;33;20450;-84
2020/12/05 02:35:40;;;;;;;30.77;18.03;;;4.70;99.90;;;;;;3457536;41;20432;-84
2020/12/05 02:38:47;;;;;;;32.70;17.73;;;4.70;99.90;;;;;;3456688;41;20963;-84
2020/12/05 02:41:13;;;;;;;36.13;19.40;;;4.60;99.90;;;;;;3453089;34;20435;-84
2020/12/05 02:43:41;;;;;;;36.50;18.70;;;4.70;99.90;;;;;;3479347;41;20351;-85
2020/12/05 02:46:09;;;;;;;32.80;17.97;;;4.70;99.90;;;;;;3477354;33;20255;-84
2020/12/05 02:48:37;;;;;;;32.20;18.67;;;4.70;99.90;;;;;;3493716;33;20354;-85
2020/12/05 02:51:03;;;;;;;33.30;17.73;;;4.70;99.90;;;;;;3498457;33;20393;-85
2020/12/05 02:53:36;;;;;;;28.80;17.30;;;4.70;99.90;;;;;;3491118;41;20373;-84
2020/12/05 02:56:02;;;;;;;29.17;17.00;;;4.70;99.90;;;;;;3496106;41;20262;-83
2020/12/05 02:58:28;;;;;;;42.50;17.60;;;4.70;99.90;;;;;;3507671;40;20366;-84
2020/12/05 03:00:56;;;;;;;30.33;16.00;;;4.70;99.90;;;;;;3490648;41;20802;-84
2020/12/05 03:03:21;;;;;;;27.67;16.73;;;4.70;99.90;;;;;;3506285;41;20369;-83
2020/12/05 03:05:52;;;;;;;26.90;16.30;;;4.70;99.90;;;;;;3499529;33;20365;-83
2020/12/05 03:08:18;;;;;;;27.13;13.83;;;4.70;99.90;;;;;;3501899;33;20358;-84
2020/12/05 03:10:46;;;;;;;25.40;12.70;;;4.70;99.90;;;;;;3488166;41;20378;-83
2020/12/05 03:13:12;;;;;;;18.33;9.37;;;4.70;99.90;;;;;;3490331;41;20246;-84
2020/12/05 03:15:37;;;;;;;11.43;7.80;;;4.60;99.90;;;;;;3498993;41;20442;-85
2020/12/05 03:18:03;;;;;;;13.60;7.97;;;4.60;99.90;;;;;;3492298;41;20242;-83
2020/12/05 03:20:31;;;;;;;8.10;5.70;;;4.50;99.90;;;;;;3498115;41;20266;-83
2020/12/05 03:22:59;;;;;;;10.60;7.03;;;4.50;99.90;;;;;;3484659;41;20278;-85
2020/12/05 03:25:28;;;;;;;7.37;5.00;;;4.50;99.90;;;;;;3479001;41;20347;-83
2020/12/05 03:27:54;;;;;;;7.70;5.10;;;4.50;99.90;;;;;;3467930;41;20394;-84
2020/12/05 03:30:20;;;;;;;4.67;3.50;;;4.50;99.90;;;;;;3484567;41;20418;-83
2020/12/05 03:32:46;;;;;;;4.47;3.47;;;4.40;99.90;;;;;;3493041;41;20346;-85
2020/12/05 03:35:12;;;;;;;4.33;3.33;;;4.40;99.90;;;;;;3465573;41;20315;-84
2020/12/05 03:37:38;;;;;;;5.50;3.80;;;4.50;99.90;;;;;;3461784;41;20431;-84
2020/12/05 03:40:07;;;;;;;5.53;3.67;;;4.40;99.90;;;;;;3461234;41;20352;-85
2020/12/05 03:42:33;;;;;;;4.07;3.37;;;4.40;99.90;;;;;;3477429;33;20259;-85
2020/12/05 03:44:59;;;;;;;3.77;3.23;;;4.40;99.90;;;;;;3481147;41;20358;-85
2020/12/05 03:47:28;;;;;;;3.17;2.90;;;4.40;99.90;;;;;;3473648;41;20281;-85
2020/12/05 03:49:53;;;;;;;2.67;2.30;;;4.40;99.90;;;;;;3471781;41;20489;-85
2020/12/05 03:52:21;;;;;;;3.73;3.13;;;4.30;99.90;;;;;;3476197;41;21024;-85
2020/12/05 03:54:49;;;;;;;3.17;2.77;;;4.30;99.90;;;;;;3465186;41;20303;-86
2020/12/05 03:57:18;;;;;;;3.67;2.50;;;4.30;99.90;;;;;;3468432;41;20363;-85
2020/12/05 03:59:48;;;;;;;4.50;2.60;;;4.30;99.90;;;;;;3469738;41;20472;-83
2020/12/05 04:02:15;;;;;;;2.80;2.50;;;4.30;99.90;;;;;;3467262;33;20862;-83
2020/12/05 04:04:41;;;;;;;3.03;2.47;;;4.40;99.90;;;;;;3471068;41;20288;-82
2020/12/05 04:07:06;;;;;;;3.90;2.93;;;4.30;99.90;;;;;;3477997;41;20483;-83
2020/12/05 04:09:34;;;;;;;2.97;2.67;;;4.30;99.90;;;;;;3475957;41;20255;-83
2020/12/05 04:12:00;;;;;;;3.03;2.73;;;4.30;99.90;;;;;;3473418;33;20571;-82
2020/12/05 04:14:30;;;;;;;2.90;2.50;;;4.40;99.90;;;;;;3483728;33;20348;-82
2020/12/05 04:16:56;;;;;;;2.83;2.17;;;4.40;99.90;;;;;;3479428;33;20878;-83
2020/12/05 04:19:22;;;;;;;2.67;2.13;;;4.30;99.90;;;;;;3487128;41;20400;-82
2020/12/05 04:21:50;;;;;;;2.43;1.90;;;4.30;99.90;;;;;;3499768;41;20750;-83
2020/12/05 04:24:19;;;;;;;2.07;1.60;;;4.30;99.90;;;;;;3503992;33;20342;-84
2020/12/05 04:26:47;;;;;;;2.20;2.00;;;4.30;99.90;;;;;;3490818;41;20351;-82
2020/12/05 04:29:15;;;;;;;2.23;2.03;;;4.30;99.90;;;;;;3498205;41;20402;-82
2020/12/05 04:31:40;;;;;;;2.97;2.07;;;4.30;99.90;;;;;;3495643;41;20367;-85
2020/12/05 04:34:08;;;;;;;3.40;2.53;;;4.20;99.90;;;;;;3489765;41;20360;-84
2020/12/05 04:36:37;;;;;;;2.60;2.30;;;4.20;99.90;;;;;;3490760;41;20274;-85
2020/12/05 04:39:03;;;;;;;3.93;2.03;;;4.20;99.90;;;;;;3486014;41;20905;-84
2020/12/05 04:41:31;;;;;;;2.40;1.73;;;4.20;99.90;;;;;;3497474;33;20375;-83
2020/12/05 04:43:59;;;;;;;2.67;1.90;;;4.20;99.90;;;;;;3476514;41;20989;-85
2020/12/05 04:46:29;;;;;;;1.70;1.60;;;4.20;99.90;;;;;;3478646;41;20433;-86
2020/12/05 04:48:59;;;;;;;2.13;1.83;;;4.10;99.90;;;;;;3491175;33;20438;-84
2020/12/05 04:51:40;;;;;;;2.47;1.80;;;4.10;99.90;;;;;;3491192;33;20367;-86
2020/12/05 04:54:09;;;;;;;1.50;1.40;;;4.10;99.90;;;;;;3479814;41;20343;-85
2020/12/05 04:56:37;;;;;;;3.00;1.80;;;4.00;99.90;;;;;;3490934;33;20343;-85
2020/12/05 04:59:06;;;;;;;1.90;1.70;;;4.10;99.90;;;;;;3495740;33;20946;-85
2020/12/05 05:01:36;;;;;;;1.80;1.40;;;4.10;99.90;;;;;;3475010;41;20374;-85
2020/12/05 05:04:04;;;;;;;2.10;1.47;;;4.10;99.90;;;;;;3485448;33;20363;-84
2020/12/05 05:06:30;;;;;;;1.70;1.60;;;4.10;99.90;;;;;;3480062;41;20868;-84
2020/12/05 05:08:56;;;;;;;2.10;1.60;;;4.00;99.90;;;;;;3482994;33;20382;-85
2020/12/05 05:11:25;;;;;;;1.90;1.70;;;4.00;99.90;;;;;;3471339;41;20359;-84
2020/12/05 05:13:50;;;;;;;1.60;1.50;;;4.10;99.90;;;;;;3464929;41;20710;-84
2020/12/05 05:16:17;;;;;;;1.63;1.53;;;4.10;99.90;;;;;;3488688;41;20338;-83
2020/12/05 05:18:45;;;;;;;1.53;1.30;;;4.00;99.90;;;;;;3492373;33;20295;-84
2020/12/05 05:21:38;;;;;;;1.90;1.60;;;4.00;99.90;;;;;;3476282;33;20367;-85
2020/12/05 05:24:15;;;;;;;1.90;1.60;;;4.10;99.90;;;;;;3478080;41;20457;-85
2020/12/05 05:30:13;;;;;;;1.57;1.37;;;4.10;99.90;;;;;;3484510;33;20447;-85
2020/12/05 05:32:46;;;;;;;1.60;1.50;;;4.10;99.90;;;;;;3493249;40;20368;-85
2020/12/05 05:38:22;;;;;;;2.90;1.40;;;4.00;99.90;;;;;;3501900;41;20362;-84
2020/12/05 05:40:49;;;;;;;1.70;1.60;;;4.10;99.90;;;;;;3501840;33;20380;-84
2020/12/05 06:14:54;;;;;;;2.93;1.97;;;4.10;99.90;;;;;;3516239;40;20333;-83
2020/12/05 06:17:21;;;;;;;2.07;1.83;;;4.10;99.90;;;;;;3500315;33;22550;-86
2020/12/05 06:19:50;;;;;;;2.60;1.80;;;4.20;99.90;;;;;;3518432;40;20370;-84
2020/12/05 06:22:40;;;;;;;1.90;1.80;;;4.20;99.90;;;;;;3506594;33;20485;-84
2020/12/05 06:32:24;;;;;;;2.80;1.77;;;4.20;99.90;;;;;;3506311;33;20349;-84
2020/12/05 06:39:12;;;;;;;2.13;1.50;;;4.20;99.90;;;;;;3504404;33;20344;-84
2020/12/05 06:49:37;;;;;;;3.27;2.37;;;3.80;99.90;;;;;;3507643;41;20334;-83
2020/12/05 06:52:22;;;;;;;4.30;2.60;;;3.70;99.90;;;;;;3512651;33;20329;-83
2020/12/05 06:54:49;;;;;;;8.20;3.20;;;3.70;99.90;;;;;;3502056;33;20366;-83
2020/12/05 06:57:17;;;;;;;3.53;3.10;;;3.50;99.90;;;;;;3503971;33;20380;-83
2020/12/05 06:59:44;;;;;;;3.27;2.90;;;3.50;99.90;;;;;;3494053;33;20354;-82
2020/12/05 07:02:32;;;;;;;11.73;3.47;;;3.40;99.90;;;;;;3498303;41;20361;-83
2020/12/05 07:05:19;;;;;;;3.40;3.10;;;3.30;99.90;;;;;;3503808;33;20362;-83
2020/12/05 07:07:46;;;;;;;7.53;2.57;;;3.30;99.90;;;;;;3494785;41;20435;-84
2020/12/05 07:10:16;;;;;;;4.97;3.50;;;3.20;99.90;;;;;;3487538;41;20472;-84
2020/12/05 07:19:39;;;;;;;7.73;4.77;;;3.10;99.90;;;;;;3452409;33;20360;-84
2020/12/05 07:22:51;;;;;;;4.57;3.27;;;2.90;99.90;;;;;;3438440;41;20869;-85
2020/12/05 07:25:17;;;;;;;4.93;3.40;;;3.00;99.90;;;;;;3438354;41;20389;-84
2020/12/05 07:28:32;;;;;;;5.20;4.00;;;3.00;99.90;;;;;;3469438;34;20371;-85
2020/12/05 07:30:59;;;;;;;3.77;2.77;;;2.90;99.90;;;;;;3465753;41;20385;-85
2020/12/05 07:41:11;;;;;;;5.40;3.77;;;3.20;99.90;;;;;;3407911;34;20338;-84
2020/12/05 07:43:36;;;;;;;3.87;3.47;;;3.30;99.90;;;;;;3443590;34;20394;-84
2020/12/05 07:46:05;;;;;;;5.80;3.97;;;3.50;99.90;;;;;;3485716;41;20351;-83
2020/12/05 07:48:34;;;;;;;4.67;3.83;;;3.60;99.90;;;;;;3486650;33;20474;-84
2020/12/05 07:51:04;;;;;;;6.40;4.10;;;3.70;99.90;;;;;;3484883;33;20407;-83
2020/12/05 07:53:34;;;;;;;4.20;3.73;;;3.80;99.90;;;;;;3488093;41;20335;-83
2020/12/05 07:56:21;;;;;;;7.87;3.90;;;3.90;99.90;;;;;;3486707;33;20339;-83
2020/12/05 07:58:52;;;;;;;5.87;3.83;;;4.00;99.90;;;;;;3495556;33;20342;-85
2020/12/05 08:01:48;;;;;;;4.80;3.90;;;4.00;99.90;;;;;;3498025;33;20426;-85
2020/12/05 08:04:36;;;;;;;6.17;4.27;;;4.10;99.90;;;;;;3496442;41;20372;-84
2020/12/05 08:07:21;;;;;;;4.77;4.03;;;4.20;99.90;;;;;;3507382;33;20390;-84
2020/12/05 08:09:47;;;;;;;9.60;5.27;;;4.20;99.90;;;;;;3509243;33;20458;-85
2020/12/05 08:12:15;;;;;;;5.50;4.03;;;4.20;99.90;;;;;;3498730;41;20349;-84
2020/12/05 08:14:42;;;;;;;6.80;4.67;;;4.30;99.90;;;;;;3505243;41;20392;-85
2020/12/05 08:17:09;;;;;;;8.13;5.07;;;4.40;99.90;;;;;;3498806;41;20346;-84
2020/12/05 08:19:40;;;;;;;16.63;8.27;;;4.40;99.90;;;;;;3498251;41;20391;-84
2020/12/05 08:22:09;;;;;;;5.83;4.80;;;4.40;99.90;;;;;;3497034;33;20393;-84
2020/12/05 08:24:57;;;;;;;7.60;5.70;;;4.40;99.90;;;;;;3507716;33;20393;-85
2020/12/05 08:27:25;;;;;;;7.30;5.83;;;4.40;99.90;;;;;;3499077;33;20800;-84
2020/12/05 08:29:55;;;;;;;10.60;6.17;;;4.40;99.90;;;;;;3510589;33;20770;-84
2020/12/05 08:32:24;;;;;;;7.20;5.17;;;4.30;99.90;;;;;;3508309;33;20378;-83
2020/12/05 08:34:50;;;;;;;5.73;5.13;;;4.30;99.90;;;;;;3514044;33;20352;-84
2020/12/05 08:37:23;;;;;;;7.20;5.13;;;4.40;99.90;;;;;;3498047;41;20880;-83
2020/12/05 08:39:51;;;;;;;5.80;4.77;;;4.40;99.90;;;;;;3503344;41;20378;-84
2020/12/05 08:42:17;;;;;;;6.27;4.73;;;4.40;99.90;;;;;;3511472;33;20402;-83
2020/12/05 08:44:44;;;;;;;7.87;5.43;;;4.40;99.90;;;;;;3502252;33;20463;-85
2020/12/05 08:47:10;;;;;;;7.87;4.93;;;4.50;99.90;;;;;;3508006;41;20346;-84
2020/12/05 08:49:38;;;;;;;9.60;6.00;;;4.50;99.90;;;;;;3511569;33;20416;-84
2020/12/05 08:52:17;;;;;;;7.33;6.63;;;4.60;99.90;;;;;;3494793;41;20377;-87
2020/12/05 08:54:58;;;;;;;11.67;6.30;;;4.60;99.90;;;;;;3511925;33;20537;-86
2020/12/05 08:57:24;;;;;;;5.37;4.80;;;4.70;99.90;;;;;;3496700;41;20380;-87
2020/12/05 09:00:02;;;;;;;5.20;4.70;;;4.70;99.90;;;;;;3500046;41;20397;-87
2020/12/05 09:02:37;;;;;;;8.13;5.30;;;4.70;99.90;;;;;;3488694;41;20768;-85
2020/12/05 09:05:03;;;;;;;5.33;4.77;;;4.80;99.90;;;;;;3496350;41;20381;-86
2020/12/05 09:07:32;;;;;;;8.03;4.77;;;4.80;99.90;;;;;;3511622;33;20357;-85
2020/12/05 09:10:13;;;;;;;10.10;4.30;;;4.90;99.90;;;;;;3519376;33;20350;-86
2020/12/05 09:12:44;;;;;;;7.37;4.47;;;4.90;99.90;;;;;;3515444;33;20342;-86
2020/12/05 09:15:11;;;;;;;7.23;5.23;;;4.90;99.90;;;;;;3505533;41;20881;-86
2020/12/05 09:17:36;;;;;;;6.53;4.97;;;5.10;99.90;;;;;;3505597;41;20433;-86
2020/12/05 09:20:22;;;;;;;5.47;4.10;;;5.20;99.90;;;;;;3505879;41;20273;-86
2020/12/05 09:22:49;;;;;;;3.90;3.53;;;5.30;99.90;;;;;;3508791;33;20471;-86
2020/12/05 09:25:38;;;;;;;4.60;3.90;;;5.40;99.90;;;;;;3507764;40;20369;-86
2020/12/05 09:28:12;;;;;;;5.10;4.37;;;5.30;99.90;;;;;;3510788;41;20341;-86
2020/12/05 09:30:44;;;;;;;4.90;3.73;;;5.50;99.90;;;;;;3500102;41;20944;-84
2020/12/05 09:33:15;;;;;;;5.10;4.17;;;5.60;99.90;;;;;;3500716;41;20354;-85
2020/12/05 09:35:44;;;;;;;4.90;4.40;;;5.70;99.90;;;;;;3510592;33;20330;-86
2020/12/05 09:38:10;;;;;;;5.43;4.17;;;5.90;99.90;;;;;;3499051;33;20368;-85
2020/12/05 09:41:11;;;;;;;4.77;4.30;;;5.90;99.90;;;;;;3504199;41;20389;-85
2020/12/05 09:43:39;;;;;;;4.20;3.80;;;6.00;99.90;;;;;;3501670;33;20783;-85
2020/12/05 09:46:11;;;;;;;7.27;4.37;;;6.10;99.90;;;;;;3493129;41;20346;-84
2020/12/05 09:49:11;;;;;;;5.90;4.20;;;6.20;99.90;;;;;;3505679;33;20334;-85
2020/12/05 09:51:40;;;;;;;4.40;3.97;;;6.30;99.90;;;;;;3497124;33;20365;-84
2020/12/05 09:54:06;;;;;;;4.03;3.73;;;6.40;99.90;;;;;;3489629;41;20378;-86
2020/12/05 09:56:31;;;;;;;4.80;3.27;;;6.50;99.90;;;;;;3482519;41;20346;-86
2020/12/05 09:58:57;;;;;;;4.33;3.20;;;6.60;99.90;;;;;;3486639;41;20242;-85
2020/12/05 10:01:26;;;;;;;4.00;3.60;;;6.60;99.90;;;;;;3493661;41;20387;-84
2020/12/05 10:04:30;;;;;;;4.83;3.20;;;6.40;99.90;;;;;;3490641;41;20745;-84
2020/12/05 10:06:56;;;;;;;6.07;4.37;;;6.10;99.90;;;;;;3492487;41;20394;-85
2020/12/05 10:09:24;;;;;;;5.20;4.27;;;5.90;99.90;;;;;;3492404;41;20347;-85
2020/12/05 10:11:53;;;;;;;5.43;4.40;;;5.70;99.90;;;;;;3484913;41;20361;-83
2020/12/05 10:14:24;;;;;;;6.83;4.97;;;5.70;99.90;;;;;;3483684;33;20346;-84
2020/12/05 10:16:52;;;;;;;8.03;6.30;;;5.80;99.90;;;;;;3497959;33;20335;-84
2020/12/05 10:19:22;;;;;;;7.73;4.80;;;5.90;99.90;;;;;;3492365;41;20358;-86
2020/12/05 10:21:49;;;;;;;10.63;6.30;;;6.00;99.90;;;;;;3486759;33;20371;-85
2020/12/05 10:24:16;;;;;;;8.33;4.70;;;6.00;99.90;;;;;;3496073;41;20490;-85
2020/12/05 10:26:55;;;;;;;5.73;5.10;;;6.10;99.90;;;;;;3494824;41;20464;-84
2020/12/05 10:29:22;;;;;;;6.30;5.00;;;6.10;99.90;;;;;;3498081;33;20432;-85
2020/12/05 10:31:51;;;;;;;6.70;4.80;;;6.10;99.90;;;;;;3502304;41;20442;-84
2020/12/05 10:34:22;;;;;;;6.90;5.00;;;6.30;99.90;;;;;;3508083;41;20382;-84
2020/12/05 10:36:53;;;;;;;4.60;4.13;;;6.30;99.90;;;;;;3499561;33;20355;-84
2020/12/05 10:39:22;;;;;;;5.87;4.93;;;6.30;99.90;;;;;;3507865;41;20350;-84
2020/12/05 10:41:49;;;;;;;5.83;4.60;;;6.20;99.90;;;;;;3508909;41;20382;-83
2020/12/05 10:44:18;;;;;;;8.37;5.97;;;6.10;99.90;;;;;;3497213;41;20363;-84
2020/12/05 10:46:48;;;;;;;7.67;5.40;;;6.20;99.90;;;;;;3501918;33;20334;-84
2020/12/05 10:49:14;;;;;;;6.60;4.60;;;6.10;99.90;;;;;;3509845;40;20389;-84
2020/12/05 11:04:00;;;;;;;4.10;3.57;;;6.60;99.90;;;;;;5118569;28;20419;-84
2020/12/05 11:06:26;;;;;;;4.27;3.77;;;6.60;99.90;;;;;;5091881;28;20425;-85
2020/12/05 11:08:55;;;;;;;5.20;3.97;;;6.50;99.90;;;;;;5104751;28;20433;-84
2020/12/05 11:11:24;;;;;;;8.10;5.37;;;6.50;99.90;;;;;;5106863;28;20978;-84
2020/12/05 11:13:50;;;;;;;4.27;3.87;;;6.60;99.90;;;;;;5103563;28;20447;-83
2020/12/05 11:16:23;;;;;;;6.80;4.30;;;6.60;99.90;;;;;;5105533;28;20463;-85
2020/12/05 11:18:52;;;;;;;5.50;4.30;;;6.60;99.90;;;;;;5106679;28;20423;-84
2020/12/05 11:21:19;;;;;;;5.40;4.67;;;6.60;99.90;;;;;;5108870;28;20428;-84
2020/12/05 11:23:45;;;;;;;4.30;3.67;;;6.70;99.90;;;;;;5110783;28;20436;-84
2020/12/05 11:26:20;;;;;;;4.90;4.40;;;6.80;99.90;;;;;;5107119;28;20197;-84
2020/12/05 11:28:53;;;;;;;4.90;4.00;;;6.80;99.90;;;;;;5088054;28;20194;-85
2020/12/05 11:31:19;;;;;;;7.33;5.40;;;6.80;99.90;;;;;;5105559;28;20834;-84
2020/12/05 11:33:45;;;;;;;8.10;6.23;;;6.80;99.90;;;;;;5104184;28;20455;-83
2020/12/05 11:36:13;;;;;;;7.07;5.80;;;6.80;99.90;;;;;;5101153;28;20191;-83
2020/12/05 11:38:39;;;;;;;5.87;5.03;;;6.90;99.90;;;;;;5100941;28;20420;-83
2020/12/05 11:41:19;;;;;;;3.87;3.43;;;6.90;99.90;;;;;;5100868;28;20828;-83
2020/12/05 11:43:55;;;;;;;6.27;4.20;;;6.90;99.90;;;;;;5086443;28;20340;-84
2020/12/05 11:46:24;;;;;;;5.10;4.20;;;6.80;99.90;;;;;;5100541;28;20492;-84
2020/12/05 11:49:20;;;;;;;4.73;3.83;;;6.70;99.90;;;;;;5090483;28;20511;-87
2020/12/05 11:51:57;;;;;;;3.90;3.40;;;6.70;99.90;;;;;;5083719;28;20471;-86
2020/12/05 11:54:26;;;;;;;5.27;4.00;;;6.60;99.90;;;;;;5091065;28;20496;-86
2020/12/05 11:56:55;;;;;;;10.53;3.93;;;6.60;99.90;;;;;;5096523;28;20432;-86
2020/12/05 11:59:20;;;;;;;4.40;4.00;;;6.70;99.90;;;;;;5076498;28;21030;-86
2020/12/05 12:01:46;;;;;;;4.57;3.47;;;6.80;99.90;;;;;;5099816;28;20427;-86
2020/12/05 12:04:25;;;;;;;3.57;3.27;;;6.90;99.90;;;;;;5084496;28;20565;-87
2020/12/05 12:06:51;;;;;;;4.13;3.67;;;7.00;99.90;;;;;;5085298;28;20767;-86
2020/12/05 12:09:17;;;;;;;6.50;3.87;;;7.00;99.90;;;;;;5081643;28;20441;-86
2020/12/05 12:11:43;;;;;;;5.23;4.10;;;6.70;99.90;;;;;;5082639;28;20464;-87
2020/12/05 12:14:10;;;;;;;4.30;3.90;;;6.60;99.90;;;;;;5082989;28;20492;-85
2020/12/05 12:16:36;;;;;;;6.47;4.10;;;6.60;99.90;;;;;;5070153;28;20461;-86
2020/12/05 12:19:02;;;;;;;5.43;4.37;;;6.50;99.90;;;;;;5081175;28;20848;-86
2020/12/05 12:21:27;;;;;;;5.50;4.17;;;6.40;99.90;;;;;;5078937;28;20191;-86
2020/12/05 12:23:54;;;;;;;5.27;4.07;;;6.40;99.90;;;;;;5083336;28;20203;-86
2020/12/05 12:26:20;;;;;;;4.83;4.33;;;6.30;99.90;;;;;;5067856;28;20558;-86
2020/12/05 12:28:45;;;;;;;6.73;4.97;;;6.30;99.90;;;;;;5087862;28;20184;-86
2020/12/05 12:31:12;;;;;;;5.43;4.93;;;6.30;99.90;;;;;;5079921;28;20257;-85
2020/12/05 12:33:38;;;;;;;9.83;5.77;;;6.20;99.90;;;;;;5083680;28;20271;-83
2020/12/05 12:36:06;;;;;;;7.77;6.27;;;6.10;99.90;;;;;;5068987;28;20452;-82
2020/12/05 12:38:32;;;;;;;7.27;6.20;;;6.10;99.90;;;;;;5079729;28;20935;-83
2020/12/05 12:40:58;;;;;;;7.03;5.27;;;6.20;99.90;;;;;;5069422;28;20929;-86
2020/12/05 12:43:47;;;;;;;7.53;6.30;;;6.10;99.90;;;;;;5080325;28;20246;-89
2020/12/05 13:06:53;;;;;;;10.50;7.70;;;6.40;99.90;;;;;;4985207;28;20477;-85
2020/12/05 13:09:22;;;;;;;10.23;6.70;;;6.40;99.90;;;;;;4961372;28;20479;-83
2020/12/05 13:11:48;;;;;;;6.13;5.10;;;6.40;99.90;;;;;;4961512;28;20833;-84
2020/12/05 13:14:17;;;;;;;6.17;4.50;;;6.40;99.90;;;;;;4950156;28;20463;-84
2020/12/05 13:16:45;;;;;;;8.60;6.07;;;6.30;99.90;;;;;;4970504;28;20456;-84
2020/12/05 13:19:11;;;;;;;12.77;6.80;;;6.20;99.90;;;;;;4992920;28;20509;-84
2020/12/05 13:21:37;;;;;;;5.30;4.50;;;6.20;99.90;;;;;;4990537;28;20878;-85
2020/12/05 13:24:03;;;;;;;6.40;5.10;;;6.10;99.90;;;;;;4969569;28;20600;-86
2020/12/05 13:26:31;;;;;;;9.57;5.47;;;6.00;99.90;;;;;;4986792;28;20462;-85
2020/12/05 13:28:57;;;;;;;7.40;5.83;;;6.00;99.90;;;;;;4988725;28;20531;-86
2020/12/05 13:31:31;;;;;;;6.60;5.30;;;6.00;99.90;;;;;;4967857;28;20616;-85
2020/12/05 13:33:57;;;;;;;7.63;6.10;;;6.00;99.90;;;;;;4990310;28;20462;-85
2020/12/05 13:36:29;;;;;;;7.10;5.17;;;6.00;99.90;;;;;;4974090;28;20524;-83
2020/12/05 13:38:54;;;;;;;8.97;6.17;;;6.00;99.90;;;;;;4965157;28;20469;-84
2020/12/05 13:41:20;;;;;;;6.90;5.87;;;6.10;99.90;;;;;;4957994;28;20906;-83
2020/12/05 13:43:46;;;;;;;8.47;5.50;;;6.20;99.90;;;;;;4961379;28;21155;-86
2020/12/05 13:46:58;;;;;;;8.77;6.67;;;6.20;99.90;;;;;;4963987;28;20681;-85
2020/12/05 14:21:03;;;;;;;9.90;7.50;;;5.50;99.90;;;;;;5022656;28;20475;-84
2020/12/05 14:23:28;;;;;;;9.43;7.30;;;5.50;99.90;;;;;;4991759;28;20444;-84
2020/12/05 14:25:54;;;;;;;9.57;7.20;;;5.50;99.90;;;;;;4987584;28;20524;-84
2020/12/05 14:28:20;;;;;;;11.13;8.07;;;5.50;99.90;;;;;;5008945;28;20357;-82
2020/12/05 14:30:47;;;;;;;11.73;7.83;;;5.50;99.90;;;;;;5007891;28;20220;-84
2020/12/05 14:33:20;;;;;;;10.67;8.30;;;5.50;99.90;;;;;;4985353;28;20205;-83
2020/12/05 14:36:17;;;;;;;9.30;8.20;;;5.40;99.90;;;;;;5000770;28;20444;-84
2020/12/05 14:38:49;;;;;;;8.70;7.80;;;5.40;99.90;;;;;;4968271;28;20432;-83
2020/12/05 14:41:17;;;;;;;10.43;8.20;;;5.30;99.90;;;;;;5003321;28;20527;-76
2020/12/05 14:43:44;;;;;;;14.47;9.67;;;5.30;99.90;;;;;;5001553;28;20455;-76
2020/12/05 14:46:12;;;;;;;13.97;9.37;;;5.20;99.90;;;;;;4989864;28;20421;-75
2020/12/05 14:48:38;;;;;;;11.30;9.17;;;5.30;99.90;;;;;;4995199;28;20811;-76
2020/12/05 14:51:05;;;;;;;10.80;8.23;;;5.30;99.90;;;;;;4984761;28;20479;-76
2020/12/05 14:53:32;;;;;;;10.20;8.10;;;5.30;99.90;;;;;;5003183;28;20601;-75
2020/12/05 14:56:01;;;;;;;10.33;8.67;;;5.20;99.90;;;;;;4985070;28;20964;-77
2020/12/05 14:58:29;;;;;;;10.93;9.17;;;5.30;99.90;;;;;;4982675;28;20490;-77
2020/12/05 15:00:58;;;;;;;6.03;5.43;;;5.20;99.90;;;;;;4985292;28;20444;-82
2020/12/05 15:03:27;;;;;;;13.10;8.97;;;5.20;99.90;;;;;;4988200;28;20943;-81
2020/12/05 15:05:53;;;;;;;10.33;8.37;;;5.20;99.90;;;;;;5002643;28;20824;-82
2020/12/05 15:08:21;;;;;;;10.90;7.77;;;5.10;99.90;;;;;;4994371;28;20781;-81
2020/12/05 15:10:47;;;;;;;10.70;7.87;;;5.10;99.90;;;;;;4997067;28;20531;-80
2020/12/05 15:13:13;;;;;;;11.17;8.33;;;5.00;99.90;;;;;;4994661;28;20874;-81
2020/12/05 15:15:39;;;;;;;9.33;7.33;;;5.00;99.90;;;;;;4997458;28;20579;-81
2020/12/05 15:18:05;;;;;;;11.37;8.87;;;5.00;99.90;;;;;;4976106;28;20190;-83
2020/12/05 15:20:51;;;;;;;12.87;6.87;;;5.00;99.90;;;;;;4985748;28;20212;-83
2020/12/05 15:23:22;;;;;;;12.00;8.07;;;5.00;99.90;;;;;;5003712;28;20588;-81
2020/12/05 15:25:50;;;;;;;6.47;5.30;;;4.90;99.90;;;;;;4986902;28;20808;-82
2020/12/05 15:28:17;;;;;;;12.70;8.60;;;4.90;99.90;;;;;;4988591;28;20514;-84
2020/12/05 15:30:45;;;;;;;14.30;9.00;;;4.80;99.90;;;;;;5006632;28;20516;-82
2020/12/05 15:33:13;;;;;;;12.07;8.70;;;4.80;99.90;;;;;;5006008;28;20528;-84
2020/12/05 15:36:21;;;;;;;12.87;9.30;;;4.80;99.90;;;;;;4980888;28;20464;-86
2020/12/05 15:39:18;;;;;;;10.57;9.27;;;4.70;99.90;;;;;;4953305;28;20788;-86
2020/12/05 15:42:04;;;;;;;11.37;9.00;;;4.70;99.90;;;;;;4965634;28;20453;-86
2020/12/05 15:44:50;;;;;;;12.67;8.80;;;4.70;99.90;;;;;;4956589;28;20863;-86
2020/12/05 15:47:20;;;;;;;13.80;8.77;;;4.70;99.90;;;;;;4965408;28;20514;-86
2020/12/05 15:49:49;;;;;;;11.60;9.60;;;4.70;99.90;;;;;;4949202;28;20434;-85